sensor_id;sensor_type;location;lat;lon;timestamp;P1;durP1;ratioP1;P2;durP2;ratioP2
11829;SDS011;5972;42.134;24.718;2024-03-08T00:01:00;32.67;;;20.43;;
11829;SDS011;5972;42.134;24.718;2024-03-08T00:03:27;29.37;;;21.27;;
11829;SDS011;5972;42.134;24.718;2024-03-08T00:05:54;27.83;;;21.10;;
11829;SDS011;5972;42.134;24.718;2024-03-08T00:08:22;29.33;;;20.50;;
11829;SDS011;5972;42.134;24.718;2024-03-08T00:10:50;26.63;;;20.63;;
11829;SDS011;5972;42.134;24.718;2024-03-08T00:13:17;30.23;;;21.40;;
11829;SDS011;5972;42.134;24.718;2024-03-08T00:15:45;28.23;;;20.47;;
11829;SDS011;5972;42.134;24.718;2024-03-08T00:18:12;33.47;;;21.97;;
11829;SDS011;5972;42.134;24.718;2024-03-08T00:20:38;29.13;;;20.57;;
11829;SDS011;5972;42.134;24.718;2024-03-08T00:23:06;29.00;;;20.90;;
11829;SDS011;5972;42.134;24.718;2024-03-08T00:25:33;28.30;;;20.63;;
11829;SDS011;5972;42.134;24.718;2024-03-08T00:28:02;30.03;;;21.17;;
11829;SDS011;5972;42.134;24.718;2024-03-08T00:30:30;25.83;;;20.33;;
11829;SDS011;5972;42.134;24.718;2024-03-08T00:32:57;28.37;;;20.93;;
11829;SDS011;5972;42.134;24.718;2024-03-08T00:35:24;25.90;;;20.20;;
11829;SDS011;5972;42.134;24.718;2024-03-08T00:37:51;28.00;;;20.87;;
11829;SDS011;5972;42.134;24.718;2024-03-08T00:40:21;30.27;;;21.23;;
11829;SDS011;5972;42.134;24.718;2024-03-08T00:42:48;30.57;;;21.23;;
11829;SDS011;5972;42.134;24.718;2024-03-08T00:45:17;29.33;;;20.07;;
11829;SDS011;5972;42.134;24.718;2024-03-08T00:47:44;27.43;;;20.90;;
11829;SDS011;5972;42.134;24.718;2024-03-08T00:50:11;25.07;;;19.57;;
11829;SDS011;5972;42.134;24.718;2024-03-08T00:52:39;27.30;;;20.60;;
11829;SDS011;5972;42.134;24.718;2024-03-08T00:55:06;30.97;;;21.17;;
11829;SDS011;5972;42.134;24.718;2024-03-08T00:57:35;25.43;;;20.63;;
11829;SDS011;5972;42.134;24.718;2024-03-08T01:00:04;30.80;;;20.90;;
11829;SDS011;5972;42.134;24.718;2024-03-08T01:02:38;27.30;;;21.10;;
11829;SDS011;5972;42.134;24.718;2024-03-08T01:05:05;30.70;;;20.83;;
11829;SDS011;5972;42.134;24.718;2024-03-08T01:07:33;27.13;;;20.90;;
11829;SDS011;5972;42.134;24.718;2024-03-08T01:10:00;31.23;;;20.60;;
11829;SDS011;5972;42.134;24.718;2024-03-08T01:12:27;30.60;;;20.43;;
11829;SDS011;5972;42.134;24.718;2024-03-08T01:14:54;27.20;;;19.90;;
11829;SDS011;5972;42.134;24.718;2024-03-08T01:17:22;27.17;;;20.73;;
11829;SDS011;5972;42.134;24.718;2024-03-08T01:19:51;28.63;;;20.53;;
11829;SDS011;5972;42.134;24.718;2024-03-08T01:22:18;28.30;;;20.30;;
11829;SDS011;5972;42.134;24.718;2024-03-08T01:24:45;28.00;;;21.67;;
11829;SDS011;5972;42.134;24.718;2024-03-08T01:27:12;34.70;;;22.03;;
11829;SDS011;5972;42.134;24.718;2024-03-08T01:29:39;25.73;;;19.87;;
11829;SDS011;5972;42.134;24.718;2024-03-08T01:32:07;31.17;;;20.00;;
11829;SDS011;5972;42.134;24.718;2024-03-08T01:34:34;28.03;;;21.20;;
11829;SDS011;5972;42.134;24.718;2024-03-08T01:37:02;30.63;;;21.10;;
11829;SDS011;5972;42.134;24.718;2024-03-08T01:39:29;26.27;;;20.73;;
11829;SDS011;5972;42.134;24.718;2024-03-08T01:41:57;28.53;;;20.80;;
11829;SDS011;5972;42.134;24.718;2024-03-08T01:44:24;23.37;;;19.43;;
11829;SDS011;5972;42.134;24.718;2024-03-08T01:46:51;27.33;;;19.57;;
11829;SDS011;5972;42.134;24.718;2024-03-08T01:49:20;25.13;;;19.13;;
11829;SDS011;5972;42.134;24.718;2024-03-08T01:51:49;29.13;;;20.13;;
11829;SDS011;5972;42.134;24.718;2024-03-08T01:54:18;30.50;;;19.90;;
11829;SDS011;5972;42.134;24.718;2024-03-08T01:56:46;30.70;;;20.27;;
11829;SDS011;5972;42.134;24.718;2024-03-08T01:59:14;24.03;;;19.60;;
11829;SDS011;5972;42.134;24.718;2024-03-08T02:01:42;30.00;;;20.67;;
11829;SDS011;5972;42.134;24.718;2024-03-08T02:04:09;29.90;;;21.40;;
11829;SDS011;5972;42.134;24.718;2024-03-08T02:06:36;33.27;;;20.87;;
11829;SDS011;5972;42.134;24.718;2024-03-08T02:09:04;26.53;;;21.13;;
11829;SDS011;5972;42.134;24.718;2024-03-08T02:11:33;27.73;;;21.63;;
11829;SDS011;5972;42.134;24.718;2024-03-08T02:14:01;28.40;;;20.83;;
11829;SDS011;5972;42.134;24.718;2024-03-08T02:16:29;27.37;;;20.80;;
11829;SDS011;5972;42.134;24.718;2024-03-08T02:18:56;25.93;;;20.13;;
11829;SDS011;5972;42.134;24.718;2024-03-08T02:21:24;26.83;;;20.77;;
11829;SDS011;5972;42.134;24.718;2024-03-08T02:23:52;25.80;;;20.30;;
11829;SDS011;5972;42.134;24.718;2024-03-08T02:26:19;29.53;;;20.90;;
11829;SDS011;5972;42.134;24.718;2024-03-08T02:28:46;24.60;;;19.00;;
11829;SDS011;5972;42.134;24.718;2024-03-08T02:31:14;26.03;;;19.67;;
11829;SDS011;5972;42.134;24.718;2024-03-08T02:33:41;25.67;;;20.50;;
11829;SDS011;5972;42.134;24.718;2024-03-08T02:36:08;23.20;;;18.73;;
11829;SDS011;5972;42.134;24.718;2024-03-08T02:38:37;25.87;;;20.00;;
11829;SDS011;5972;42.134;24.718;2024-03-08T02:41:06;25.17;;;18.23;;
11829;SDS011;5972;42.134;24.718;2024-03-08T02:43:33;25.43;;;19.97;;
11829;SDS011;5972;42.134;24.718;2024-03-08T02:46:01;28.80;;;20.37;;
11829;SDS011;5972;42.134;24.718;2024-03-08T02:48:28;26.07;;;19.30;;
11829;SDS011;5972;42.134;24.718;2024-03-08T02:50:55;25.17;;;19.07;;
11829;SDS011;5972;42.134;24.718;2024-03-08T02:53:23;23.00;;;18.43;;
11829;SDS011;5972;42.134;24.718;2024-03-08T02:55:52;23.43;;;17.80;;
11829;SDS011;5972;42.134;24.718;2024-03-08T02:58:20;23.50;;;17.40;;
11829;SDS011;5972;42.134;24.718;2024-03-08T03:00:47;25.37;;;17.53;;
11829;SDS011;5972;42.134;24.718;2024-03-08T03:03:14;25.47;;;17.67;;
11829;SDS011;5972;42.134;24.718;2024-03-08T03:05:41;24.20;;;17.53;;
11829;SDS011;5972;42.134;24.718;2024-03-08T03:08:09;23.00;;;15.97;;
11829;SDS011;5972;42.134;24.718;2024-03-08T03:10:37;22.80;;;17.90;;
11829;SDS011;5972;42.134;24.718;2024-03-08T03:13:05;23.03;;;16.90;;
11829;SDS011;5972;42.134;24.718;2024-03-08T03:15:33;21.40;;;16.70;;
11829;SDS011;5972;42.134;24.718;2024-03-08T03:18:01;21.83;;;17.13;;
11829;SDS011;5972;42.134;24.718;2024-03-08T03:20:28;23.07;;;17.77;;
11829;SDS011;5972;42.134;24.718;2024-03-08T03:22:57;25.47;;;17.53;;
11829;SDS011;5972;42.134;24.718;2024-03-08T03:25:26;28.13;;;19.77;;
11829;SDS011;5972;42.134;24.718;2024-03-08T03:27:59;22.50;;;17.47;;
11829;SDS011;5972;42.134;24.718;2024-03-08T03:30:27;24.17;;;18.57;;
11829;SDS011;5972;42.134;24.718;2024-03-08T03:32:58;26.17;;;19.23;;
11829;SDS011;5972;42.134;24.718;2024-03-08T03:35:26;28.37;;;19.50;;
11829;SDS011;5972;42.134;24.718;2024-03-08T03:37:54;25.87;;;18.70;;
11829;SDS011;5972;42.134;24.718;2024-03-08T03:40:30;27.67;;;19.03;;
11829;SDS011;5972;42.134;24.718;2024-03-08T03:42:58;28.60;;;19.60;;
11829;SDS011;5972;42.134;24.718;2024-03-08T03:45:25;27.67;;;19.97;;
11829;SDS011;5972;42.134;24.718;2024-03-08T03:47:54;25.77;;;19.17;;
11829;SDS011;5972;42.134;24.718;2024-03-08T03:50:21;28.07;;;19.53;;
11829;SDS011;5972;42.134;24.718;2024-03-08T03:52:48;27.93;;;19.73;;
11829;SDS011;5972;42.134;24.718;2024-03-08T03:55:15;29.47;;;21.00;;
11829;SDS011;5972;42.134;24.718;2024-03-08T03:57:43;29.13;;;20.53;;
11829;SDS011;5972;42.134;24.718;2024-03-08T04:00:11;29.53;;;22.33;;
11829;SDS011;5972;42.134;24.718;2024-03-08T04:02:39;29.90;;;21.43;;
11829;SDS011;5972;42.134;24.718;2024-03-08T04:05:09;31.10;;;21.07;;
11829;SDS011;5972;42.134;24.718;2024-03-08T04:07:36;29.73;;;21.70;;
11829;SDS011;5972;42.134;24.718;2024-03-08T04:10:04;28.93;;;21.37;;
11829;SDS011;5972;42.134;24.718;2024-03-08T04:12:33;30.60;;;21.43;;
11829;SDS011;5972;42.134;24.718;2024-03-08T04:15:00;36.47;;;22.60;;
11829;SDS011;5972;42.134;24.718;2024-03-08T04:17:27;31.97;;;21.10;;
11829;SDS011;5972;42.134;24.718;2024-03-08T04:19:54;36.43;;;22.43;;
11829;SDS011;5972;42.134;24.718;2024-03-08T04:22:23;32.23;;;21.93;;
11829;SDS011;5972;42.134;24.718;2024-03-08T04:24:50;32.10;;;21.70;;
11829;SDS011;5972;42.134;24.718;2024-03-08T04:27:17;33.33;;;21.83;;
11829;SDS011;5972;42.134;24.718;2024-03-08T04:29:44;34.70;;;23.10;;
11829;SDS011;5972;42.134;24.718;2024-03-08T04:32:11;33.20;;;23.03;;
11829;SDS011;5972;42.134;24.718;2024-03-08T04:34:38;39.83;;;22.27;;
11829;SDS011;5972;42.134;24.718;2024-03-08T04:37:05;38.07;;;22.60;;
11829;SDS011;5972;42.134;24.718;2024-03-08T04:39:37;39.97;;;22.73;;
11829;SDS011;5972;42.134;24.718;2024-03-08T04:42:04;36.67;;;23.13;;
11829;SDS011;5972;42.134;24.718;2024-03-08T04:44:35;39.30;;;23.17;;
11829;SDS011;5972;42.134;24.718;2024-03-08T04:47:02;35.20;;;22.23;;
11829;SDS011;5972;42.134;24.718;2024-03-08T04:49:31;32.73;;;23.90;;
11829;SDS011;5972;42.134;24.718;2024-03-08T04:52:00;38.37;;;22.57;;
11829;SDS011;5972;42.134;24.718;2024-03-08T04:54:28;34.97;;;22.50;;
11829;SDS011;5972;42.134;24.718;2024-03-08T04:56:57;42.27;;;23.27;;
11829;SDS011;5972;42.134;24.718;2024-03-08T04:59:25;35.30;;;23.40;;
11829;SDS011;5972;42.134;24.718;2024-03-08T05:01:52;33.73;;;23.23;;
11829;SDS011;5972;42.134;24.718;2024-03-08T05:04:19;35.93;;;23.40;;
11829;SDS011;5972;42.134;24.718;2024-03-08T05:06:46;31.43;;;22.07;;
11829;SDS011;5972;42.134;24.718;2024-03-08T05:09:13;37.20;;;22.80;;
11829;SDS011;5972;42.134;24.718;2024-03-08T05:11:41;39.63;;;23.60;;
11829;SDS011;5972;42.134;24.718;2024-03-08T05:14:10;33.10;;;22.57;;
11829;SDS011;5972;42.134;24.718;2024-03-08T05:16:40;36.73;;;23.37;;
11829;SDS011;5972;42.134;24.718;2024-03-08T05:19:07;41.93;;;25.07;;
11829;SDS011;5972;42.134;24.718;2024-03-08T05:21:34;37.10;;;24.63;;
11829;SDS011;5972;42.134;24.718;2024-03-08T05:24:01;39.33;;;23.33;;
11829;SDS011;5972;42.134;24.718;2024-03-08T05:26:28;36.37;;;23.63;;
11829;SDS011;5972;42.134;24.718;2024-03-08T05:28:55;35.47;;;24.10;;
11829;SDS011;5972;42.134;24.718;2024-03-08T05:31:24;38.93;;;24.37;;
11829;SDS011;5972;42.134;24.718;2024-03-08T05:33:53;40.07;;;23.90;;
11829;SDS011;5972;42.134;24.718;2024-03-08T05:36:20;37.50;;;24.60;;
11829;SDS011;5972;42.134;24.718;2024-03-08T05:38:47;40.43;;;24.53;;
11829;SDS011;5972;42.134;24.718;2024-03-08T05:41:15;38.37;;;24.07;;
11829;SDS011;5972;42.134;24.718;2024-03-08T05:43:44;42.73;;;25.73;;
11829;SDS011;5972;42.134;24.718;2024-03-08T05:46:11;37.80;;;24.40;;
11829;SDS011;5972;42.134;24.718;2024-03-08T05:48:44;35.23;;;22.70;;
11829;SDS011;5972;42.134;24.718;2024-03-08T05:51:11;35.77;;;24.47;;
11829;SDS011;5972;42.134;24.718;2024-03-08T05:53:38;39.93;;;25.00;;
11829;SDS011;5972;42.134;24.718;2024-03-08T05:56:05;34.47;;;24.80;;
11829;SDS011;5972;42.134;24.718;2024-03-08T05:58:34;40.70;;;25.33;;
11829;SDS011;5972;42.134;24.718;2024-03-08T06:01:01;40.40;;;25.27;;
11829;SDS011;5972;42.134;24.718;2024-03-08T06:03:32;38.70;;;25.73;;
11829;SDS011;5972;42.134;24.718;2024-03-08T06:06:01;37.90;;;24.73;;
11829;SDS011;5972;42.134;24.718;2024-03-08T06:08:28;38.13;;;24.13;;
11829;SDS011;5972;42.134;24.718;2024-03-08T06:10:56;39.07;;;25.23;;
11829;SDS011;5972;42.134;24.718;2024-03-08T06:13:24;34.73;;;24.00;;
11829;SDS011;5972;42.134;24.718;2024-03-08T06:15:51;39.80;;;24.13;;
11829;SDS011;5972;42.134;24.718;2024-03-08T06:18:18;39.13;;;25.87;;
11829;SDS011;5972;42.134;24.718;2024-03-08T06:20:45;45.80;;;26.53;;
11829;SDS011;5972;42.134;24.718;2024-03-08T06:23:14;37.97;;;26.70;;
11829;SDS011;5972;42.134;24.718;2024-03-08T06:25:43;40.50;;;24.90;;
11829;SDS011;5972;42.134;24.718;2024-03-08T06:28:10;38.87;;;26.27;;
11829;SDS011;5972;42.134;24.718;2024-03-08T06:30:37;42.63;;;26.07;;
11829;SDS011;5972;42.134;24.718;2024-03-08T06:33:04;37.33;;;25.47;;
11829;SDS011;5972;42.134;24.718;2024-03-08T06:35:32;40.13;;;25.60;;
11829;SDS011;5972;42.134;24.718;2024-03-08T06:38:02;42.47;;;26.87;;
11829;SDS011;5972;42.134;24.718;2024-03-08T06:40:31;41.00;;;26.40;;
11829;SDS011;5972;42.134;24.718;2024-03-08T06:42:58;78.43;;;40.70;;
11829;SDS011;5972;42.134;24.718;2024-03-08T06:45:25;71.70;;;38.53;;
11829;SDS011;5972;42.134;24.718;2024-03-08T06:47:53;47.60;;;29.10;;
11829;SDS011;5972;42.134;24.718;2024-03-08T06:50:21;39.97;;;27.40;;
11829;SDS011;5972;42.134;24.718;2024-03-08T06:52:48;44.10;;;26.63;;
11829;SDS011;5972;42.134;24.718;2024-03-08T06:55:18;37.70;;;26.00;;
11829;SDS011;5972;42.134;24.718;2024-03-08T06:57:47;40.70;;;26.03;;
11829;SDS011;5972;42.134;24.718;2024-03-08T07:00:15;42.60;;;28.33;;
11829;SDS011;5972;42.134;24.718;2024-03-08T07:02:46;38.60;;;26.60;;
11829;SDS011;5972;42.134;24.718;2024-03-08T07:05:13;37.17;;;26.53;;
11829;SDS011;5972;42.134;24.718;2024-03-08T07:07:41;40.80;;;25.77;;
11829;SDS011;5972;42.134;24.718;2024-03-08T07:10:08;43.87;;;27.97;;
11829;SDS011;5972;42.134;24.718;2024-03-08T07:12:39;38.03;;;26.10;;
11829;SDS011;5972;42.134;24.718;2024-03-08T07:15:09;37.40;;;25.80;;
11829;SDS011;5972;42.134;24.718;2024-03-08T07:17:38;39.60;;;25.80;;
11829;SDS011;5972;42.134;24.718;2024-03-08T07:20:06;44.03;;;25.93;;
11829;SDS011;5972;42.134;24.718;2024-03-08T07:22:37;45.33;;;27.43;;
11829;SDS011;5972;42.134;24.718;2024-03-08T07:25:04;47.00;;;27.53;;
11829;SDS011;5972;42.134;24.718;2024-03-08T07:27:45;38.70;;;26.60;;
11829;SDS011;5972;42.134;24.718;2024-03-08T07:30:14;38.60;;;28.03;;
11829;SDS011;5972;42.134;24.718;2024-03-08T07:33:03;38.97;;;27.60;;
11829;SDS011;5972;42.134;24.718;2024-03-08T07:35:32;40.90;;;26.27;;
11829;SDS011;5972;42.134;24.718;2024-03-08T07:38:02;39.93;;;26.77;;
11829;SDS011;5972;42.134;24.718;2024-03-08T07:40:30;39.20;;;26.13;;
11829;SDS011;5972;42.134;24.718;2024-03-08T07:42:57;43.83;;;25.17;;
11829;SDS011;5972;42.134;24.718;2024-03-08T07:45:26;36.73;;;24.73;;
11829;SDS011;5972;42.134;24.718;2024-03-08T07:47:53;37.77;;;24.70;;
11829;SDS011;5972;42.134;24.718;2024-03-08T07:50:21;34.50;;;24.43;;
11829;SDS011;5972;42.134;24.718;2024-03-08T07:52:48;35.33;;;25.10;;
11829;SDS011;5972;42.134;24.718;2024-03-08T07:55:15;46.27;;;24.87;;
11829;SDS011;5972;42.134;24.718;2024-03-08T07:57:42;35.23;;;23.97;;
11829;SDS011;5972;42.134;24.718;2024-03-08T08:00:09;35.40;;;25.90;;
11829;SDS011;5972;42.134;24.718;2024-03-08T08:02:44;35.30;;;24.07;;
11829;SDS011;5972;42.134;24.718;2024-03-08T08:05:11;36.13;;;23.47;;
11829;SDS011;5972;42.134;24.718;2024-03-08T08:07:39;35.20;;;25.23;;
11829;SDS011;5972;42.134;24.718;2024-03-08T08:10:09;34.20;;;24.83;;
11829;SDS011;5972;42.134;24.718;2024-03-08T08:12:42;33.47;;;24.50;;
11829;SDS011;5972;42.134;24.718;2024-03-08T08:15:09;35.90;;;24.00;;
11829;SDS011;5972;42.134;24.718;2024-03-08T08:17:36;28.20;;;21.00;;
11829;SDS011;5972;42.134;24.718;2024-03-08T08:20:05;29.17;;;21.67;;
11829;SDS011;5972;42.134;24.718;2024-03-08T08:22:33;35.30;;;22.83;;
11829;SDS011;5972;42.134;24.718;2024-03-08T08:25:00;30.67;;;21.53;;
11829;SDS011;5972;42.134;24.718;2024-03-08T08:27:27;29.80;;;21.07;;
11829;SDS011;5972;42.134;24.718;2024-03-08T08:29:54;32.00;;;21.23;;
11829;SDS011;5972;42.134;24.718;2024-03-08T08:32:22;27.97;;;20.10;;
11829;SDS011;5972;42.134;24.718;2024-03-08T08:34:49;26.70;;;19.43;;
11829;SDS011;5972;42.134;24.718;2024-03-08T08:37:17;28.47;;;21.03;;
11829;SDS011;5972;42.134;24.718;2024-03-08T08:39:44;30.57;;;22.47;;
11829;SDS011;5972;42.134;24.718;2024-03-08T08:42:11;29.97;;;21.00;;
11829;SDS011;5972;42.134;24.718;2024-03-08T08:44:38;31.77;;;21.77;;
11829;SDS011;5972;42.134;24.718;2024-03-08T08:47:05;28.97;;;21.20;;
11829;SDS011;5972;42.134;24.718;2024-03-08T08:49:32;29.30;;;21.37;;
11829;SDS011;5972;42.134;24.718;2024-03-08T08:52:00;27.93;;;20.67;;
11829;SDS011;5972;42.134;24.718;2024-03-08T08:54:29;25.17;;;17.67;;
11829;SDS011;5972;42.134;24.718;2024-03-08T08:56:56;24.67;;;18.47;;
11829;SDS011;5972;42.134;24.718;2024-03-08T08:59:23;22.97;;;16.93;;
11829;SDS011;5972;42.134;24.718;2024-03-08T09:01:50;23.47;;;17.40;;
11829;SDS011;5972;42.134;24.718;2024-03-08T09:04:19;21.57;;;16.00;;
11829;SDS011;5972;42.134;24.718;2024-03-08T09:06:48;21.97;;;15.90;;
11829;SDS011;5972;42.134;24.718;2024-03-08T09:09:15;23.00;;;16.47;;
11829;SDS011;5972;42.134;24.718;2024-03-08T09:11:43;27.43;;;17.27;;
11829;SDS011;5972;42.134;24.718;2024-03-08T09:14:11;24.90;;;18.83;;
11829;SDS011;5972;42.134;24.718;2024-03-08T09:16:39;22.30;;;15.87;;
11829;SDS011;5972;42.134;24.718;2024-03-08T09:19:06;24.80;;;16.80;;
11829;SDS011;5972;42.134;24.718;2024-03-08T09:21:36;22.67;;;16.80;;
11829;SDS011;5972;42.134;24.718;2024-03-08T09:24:04;20.57;;;15.97;;
11829;SDS011;5972;42.134;24.718;2024-03-08T09:26:32;22.87;;;15.97;;
11829;SDS011;5972;42.134;24.718;2024-03-08T09:29:01;21.88;;;16.40;;
11829;SDS011;5972;42.134;24.718;2024-03-08T09:31:28;21.17;;;15.40;;
11829;SDS011;5972;42.134;24.718;2024-03-08T09:33:55;19.40;;;14.93;;
11829;SDS011;5972;42.134;24.718;2024-03-08T09:36:22;21.27;;;15.27;;
11829;SDS011;5972;42.134;24.718;2024-03-08T09:38:50;19.53;;;15.27;;
11829;SDS011;5972;42.134;24.718;2024-03-08T09:41:18;17.43;;;14.27;;
11829;SDS011;5972;42.134;24.718;2024-03-08T09:43:45;26.20;;;15.17;;
11829;SDS011;5972;42.134;24.718;2024-03-08T09:46:14;27.55;;;19.70;;
11829;SDS011;5972;42.134;24.718;2024-03-08T09:48:44;19.60;;;15.02;;
11829;SDS011;5972;42.134;24.718;2024-03-08T09:51:12;20.25;;;15.23;;
11829;SDS011;5972;42.134;24.718;2024-03-08T09:53:40;18.77;;;14.57;;
11829;SDS011;5972;42.134;24.718;2024-03-08T09:56:08;23.98;;;15.05;;
11829;SDS011;5972;42.134;24.718;2024-03-08T09:58:36;21.00;;;14.70;;
11829;SDS011;5972;42.134;24.718;2024-03-08T10:01:20;20.02;;;14.45;;
11829;SDS011;5972;42.134;24.718;2024-03-08T10:03:47;17.90;;;13.93;;
11829;SDS011;5972;42.134;24.718;2024-03-08T10:06:15;18.55;;;13.75;;
11829;SDS011;5972;42.134;24.718;2024-03-08T10:08:42;17.20;;;13.37;;
11829;SDS011;5972;42.134;24.718;2024-03-08T10:11:10;17.30;;;13.55;;
11829;SDS011;5972;42.134;24.718;2024-03-08T10:13:38;21.50;;;13.70;;
11829;SDS011;5972;42.134;24.718;2024-03-08T10:16:06;16.23;;;12.98;;
11829;SDS011;5972;42.134;24.718;2024-03-08T10:18:35;14.63;;;12.25;;
11829;SDS011;5972;42.134;24.718;2024-03-08T10:21:03;18.40;;;13.10;;
11829;SDS011;5972;42.134;24.718;2024-03-08T10:23:32;14.15;;;11.77;;
11829;SDS011;5972;42.134;24.718;2024-03-08T10:26:11;18.85;;;12.25;;
11829;SDS011;5972;42.134;24.718;2024-03-08T10:28:41;16.75;;;13.13;;
11829;SDS011;5972;42.134;24.718;2024-03-08T10:31:08;21.98;;;13.35;;
11829;SDS011;5972;42.134;24.718;2024-03-08T10:33:37;19.08;;;13.30;;
11829;SDS011;5972;42.134;24.718;2024-03-08T10:36:05;19.15;;;12.80;;
11829;SDS011;5972;42.134;24.718;2024-03-08T10:38:35;20.80;;;13.32;;
11829;SDS011;5972;42.134;24.718;2024-03-08T10:41:04;20.63;;;12.43;;
11829;SDS011;5972;42.134;24.718;2024-03-08T10:43:32;16.40;;;13.00;;
11829;SDS011;5972;42.134;24.718;2024-03-08T10:46:13;19.15;;;13.30;;
11829;SDS011;5972;42.134;24.718;2024-03-08T10:48:49;21.25;;;12.75;;
11829;SDS011;5972;42.134;24.718;2024-03-08T10:51:19;18.73;;;12.02;;
11829;SDS011;5972;42.134;24.718;2024-03-08T10:53:46;17.33;;;12.70;;
11829;SDS011;5972;42.134;24.718;2024-03-08T10:56:16;21.88;;;13.00;;
11829;SDS011;5972;42.134;24.718;2024-03-08T10:58:43;19.55;;;12.80;;
11829;SDS011;5972;42.134;24.718;2024-03-08T11:01:12;16.83;;;12.57;;
11829;SDS011;5972;42.134;24.718;2024-03-08T11:03:46;18.83;;;13.48;;
11829;SDS011;5972;42.134;24.718;2024-03-08T11:06:18;16.27;;;12.93;;
11829;SDS011;5972;42.134;24.718;2024-03-08T11:08:49;16.33;;;12.27;;
11829;SDS011;5972;42.134;24.718;2024-03-08T11:11:29;17.98;;;12.63;;
11829;SDS011;5972;42.134;24.718;2024-03-08T11:13:57;15.20;;;11.40;;
11829;SDS011;5972;42.134;24.718;2024-03-08T11:16:37;16.27;;;10.55;;
11829;SDS011;5972;42.134;24.718;2024-03-08T11:19:22;14.15;;;11.63;;
11829;SDS011;5972;42.134;24.718;2024-03-08T11:24:46;18.70;;;12.13;;
11829;SDS011;5972;42.134;24.718;2024-03-08T11:27:13;17.15;;;11.75;;
11829;SDS011;5972;42.134;24.718;2024-03-08T11:29:41;17.48;;;12.77;;
11829;SDS011;5972;42.134;24.718;2024-03-08T11:32:09;16.98;;;12.65;;
11829;SDS011;5972;42.134;24.718;2024-03-08T11:34:39;10.50;;;9.40;;
11829;SDS011;5972;42.134;24.718;2024-03-08T11:37:12;12.63;;;10.07;;
11829;SDS011;5972;42.134;24.718;2024-03-08T11:39:40;15.80;;;10.88;;
11829;SDS011;5972;42.134;24.718;2024-03-08T11:42:12;12.20;;;9.70;;
11829;SDS011;5972;42.134;24.718;2024-03-08T11:44:39;23.27;;;10.98;;
11829;SDS011;5972;42.134;24.718;2024-03-08T11:47:09;16.27;;;9.68;;
11829;SDS011;5972;42.134;24.718;2024-03-08T11:49:37;9.48;;;7.18;;
11829;SDS011;5972;42.134;24.718;2024-03-08T11:52:10;11.23;;;8.10;;
11829;SDS011;5972;42.134;24.718;2024-03-08T11:54:39;9.45;;;8.23;;
11829;SDS011;5972;42.134;24.718;2024-03-08T11:57:06;12.25;;;9.13;;
11829;SDS011;5972;42.134;24.718;2024-03-08T11:59:35;9.05;;;8.02;;
11829;SDS011;5972;42.134;24.718;2024-03-08T12:02:02;9.75;;;8.23;;
11829;SDS011;5972;42.134;24.718;2024-03-08T12:04:31;11.88;;;7.82;;
11829;SDS011;5972;42.134;24.718;2024-03-08T12:07:02;11.80;;;7.15;;
11829;SDS011;5972;42.134;24.718;2024-03-08T12:09:34;10.70;;;7.95;;
11829;SDS011;5972;42.134;24.718;2024-03-08T12:12:02;12.25;;;9.18;;
11829;SDS011;5972;42.134;24.718;2024-03-08T12:14:29;11.63;;;8.95;;
11829;SDS011;5972;42.134;24.718;2024-03-08T12:16:57;10.65;;;7.80;;
11829;SDS011;5972;42.134;24.718;2024-03-08T12:19:26;10.20;;;8.07;;
11829;SDS011;5972;42.134;24.718;2024-03-08T12:21:56;12.02;;;8.43;;
11829;SDS011;5972;42.134;24.718;2024-03-08T12:24:24;10.50;;;8.07;;
11829;SDS011;5972;42.134;24.718;2024-03-08T12:26:52;11.95;;;8.07;;
11829;SDS011;5972;42.134;24.718;2024-03-08T12:29:23;10.05;;;7.25;;
11829;SDS011;5972;42.134;24.718;2024-03-08T12:31:53;9.55;;;7.50;;
11829;SDS011;5972;42.134;24.718;2024-03-08T12:34:21;15.93;;;9.65;;
11829;SDS011;5972;42.134;24.718;2024-03-08T12:36:48;15.88;;;9.23;;
11829;SDS011;5972;42.134;24.718;2024-03-08T12:39:19;12.52;;;9.98;;
11829;SDS011;5972;42.134;24.718;2024-03-08T12:41:53;15.95;;;10.35;;
11829;SDS011;5972;42.134;24.718;2024-03-08T12:44:22;14.45;;;10.82;;
11829;SDS011;5972;42.134;24.718;2024-03-08T12:46:51;14.75;;;10.75;;
11829;SDS011;5972;42.134;24.718;2024-03-08T12:49:18;15.07;;;10.35;;
11829;SDS011;5972;42.134;24.718;2024-03-08T12:51:47;11.30;;;9.00;;
11829;SDS011;5972;42.134;24.718;2024-03-08T12:54:14;13.73;;;10.15;;
11829;SDS011;5972;42.134;24.718;2024-03-08T12:56:41;12.32;;;9.80;;
11829;SDS011;5972;42.134;24.718;2024-03-08T12:59:10;13.55;;;10.05;;
11829;SDS011;5972;42.134;24.718;2024-03-08T13:01:38;11.65;;;8.85;;
11829;SDS011;5972;42.134;24.718;2024-03-08T13:04:05;11.68;;;9.45;;
11829;SDS011;5972;42.134;24.718;2024-03-08T13:06:36;15.45;;;9.75;;
11829;SDS011;5972;42.134;24.718;2024-03-08T13:09:03;13.27;;;8.95;;
11829;SDS011;5972;42.134;24.718;2024-03-08T13:11:31;15.13;;;10.18;;
11829;SDS011;5972;42.134;24.718;2024-03-08T13:14:01;13.27;;;9.13;;
11829;SDS011;5972;42.134;24.718;2024-03-08T13:16:31;12.77;;;9.18;;
11829;SDS011;5972;42.134;24.718;2024-03-08T13:19:00;14.15;;;9.00;;
11829;SDS011;5972;42.134;24.718;2024-03-08T13:21:27;10.40;;;7.88;;
11829;SDS011;5972;42.134;24.718;2024-03-08T13:23:55;12.63;;;7.60;;
11829;SDS011;5972;42.134;24.718;2024-03-08T13:26:24;10.55;;;8.18;;
11829;SDS011;5972;42.134;24.718;2024-03-08T13:28:57;10.63;;;8.18;;
11829;SDS011;5972;42.134;24.718;2024-03-08T13:31:25;11.40;;;8.10;;
11829;SDS011;5972;42.134;24.718;2024-03-08T13:33:53;15.85;;;8.70;;
11829;SDS011;5972;42.134;24.718;2024-03-08T13:36:23;10.82;;;8.73;;
11829;SDS011;5972;42.134;24.718;2024-03-08T13:38:54;10.10;;;7.85;;
11829;SDS011;5972;42.134;24.718;2024-03-08T13:41:24;8.65;;;7.05;;
11829;SDS011;5972;42.134;24.718;2024-03-08T13:43:51;9.45;;;7.82;;
11829;SDS011;5972;42.134;24.718;2024-03-08T13:46:18;10.73;;;7.97;;
11829;SDS011;5972;42.134;24.718;2024-03-08T13:48:45;14.25;;;7.22;;
11829;SDS011;5972;42.134;24.718;2024-03-08T13:51:14;11.32;;;7.35;;
11829;SDS011;5972;42.134;24.718;2024-03-08T13:53:42;10.25;;;7.15;;
11829;SDS011;5972;42.134;24.718;2024-03-08T13:56:09;11.85;;;7.80;;
11829;SDS011;5972;42.134;24.718;2024-03-08T13:58:36;7.65;;;6.75;;
11829;SDS011;5972;42.134;24.718;2024-03-08T14:01:05;10.50;;;7.55;;
11829;SDS011;5972;42.134;24.718;2024-03-08T14:03:36;10.15;;;7.25;;
11829;SDS011;5972;42.134;24.718;2024-03-08T14:06:03;8.70;;;7.03;;
11829;SDS011;5972;42.134;24.718;2024-03-08T14:08:33;10.68;;;7.50;;
11829;SDS011;5972;42.134;24.718;2024-03-08T14:11:03;11.60;;;7.25;;
11829;SDS011;5972;42.134;24.718;2024-03-08T14:13:37;8.75;;;7.25;;
11829;SDS011;5972;42.134;24.718;2024-03-08T14:16:07;7.63;;;6.80;;
11829;SDS011;5972;42.134;24.718;2024-03-08T14:18:35;8.93;;;7.28;;
11829;SDS011;5972;42.134;24.718;2024-03-08T14:21:03;12.50;;;7.63;;
11829;SDS011;5972;42.134;24.718;2024-03-08T14:23:30;10.90;;;7.43;;
11829;SDS011;5972;42.134;24.718;2024-03-08T14:25:59;7.95;;;7.00;;
11829;SDS011;5972;42.134;24.718;2024-03-08T14:28:26;8.40;;;7.00;;
11829;SDS011;5972;42.134;24.718;2024-03-08T14:30:53;8.65;;;7.63;;
11829;SDS011;5972;42.134;24.718;2024-03-08T14:33:20;9.98;;;7.38;;